Relevés horaires Les Attelas (Suisse)


Relevés horaires à Les Attelas - Mercredi 06 Janv. 2016
Heure UTC1 Température [°C] Vent [km/h] Hum. [%] Pres.4 [hPa] Visi. [Km] Nébu. [octa] Préc.5 [mm] Cond.
2m. Res. Ros. Dir.2 Vit. Moy. Raf.3
23:00 -10.8 -16.6 -11.4 SO 11.1 16.7 29.6 95 700(0.4/3h) -- -- -- --
22:00 -11.0 -17.9 -11.8 SSO 14.8 20.4 37.0 94 700(-0.1/3h) -- -- -- --
21:00 -9.9 -17 -9.9 SSO 16.7 22.2 42.6 100 700(0.7/3h) -- -- -- --
20:00 -10.1 -15.8 -10.1 SO 11.1 14.8 35.2 100 700(1.1/3h) -- -- -- --
19:00 -10.1 -18.1 -10.1 SO 20.4 22.2 42.6 100 700(1.1/3h) -- -- -- --
18:00 -10.4 -16.7 -10.4 SO 13.0 29.6 38.9 100 700(0.8/3h) -- -- -- --
17:00 -10.0 -19.5 -10.0 OSO 29.6 29.6 38.9 100 700(0.5/3h) -- -- -- --
16:00 -10.1 -16.8 -12.2 SO 14.8 20.4 35.2 85 700(0.5/3h) -- -- -- --
15:00 -9.8 -17.7 -12.4 SO 20.4 22.2 31.5 81 700(0.4/3h) -- -- -- --
14:00 -10.1 -14.3 -12.3 OSO 7.4 14.8 27.8 84 700(0.2/3h) -- -- -- --
13:00 -10.2 -16.5 -12.2 O 13.0 16.7 29.6 85 700(-0.1/3h) -- -- -- --
12:00 -9.9 -16.6 -11.9 OSO 14.8 14.8 31.5 85 700(0.1/3h) -- -- -- --
11:00 -9.4 -16 -12.7 OSO 14.8 14.8 27.8 77 700(0.4/3h) -- -- -- --
10:00 -9.5 -15 -13.6 SSO 11.1 11.1 16.7 72 700(0.7/3h) -- -- -- --
09:00 -10.1 -14.3 -14.5 SSO 7.4 14.8 22.2 70 700(0.6/3h) -- -- -- --
08:00 -11.1 -16.3 -15.1 SSO 9.3 9.3 16.7 72 700(0.6/3h) -- -- -- --
07:00 -11.3 -11.3 -15.1 S 3.7 7.4 13.0 73 700(0.4/3h) -- -- -- --
06:00 -12.4 -16 -13.5 OSO 5.6 14.8 22.2 91 700(0.1/3h) -- -- -- --
05:00 -12.2 -17.6 -15.3 SO 9.3 13.0 18.5 78 700(-0.2/3h) -- -- -- --
04:00 -12.1 -19.3 -15.5 S 14.8 14.8 16.7 76 700(0.0/3h) -- -- -- --
03:00 -11.7 -18.3 -15.2 SSO 13.0 14.8 22.2 75 700(-0.1/3h) -- -- -- --
02:00 -12.1 -18.2 -14.9 SSO 11.1 13.0 16.7 80 700(0.0/3h) -- -- -- --
01:00 -12.3 -18.4 -13.5 SSO 11.1 14.8 18.5 91 700(-0.3/3h) -- -- -- --
00:00 -11.9 -19 -15.2 S 14.8 18.5 24.1 76 700(-0.1/3h) -- -- -- --

1 Coordinated Universal Time. Actuellement il est 01:00 locale et 23:00 UTC.

2 Le vent souffle depuis la direction indiquée vers la direction oposée.

3 Les rafales max. sont disponible 40 min après l'heure du relevé.

4 Pour les stations d'altitude (plus de 600m) le géopotentiel du niveau le plus proche de la pression obligatoire est indiqué.

5 Les stations disposant d'un diffuseur peuvent indiquer "trace". Cela signifie que des précipitations ont touchés le sol mais que la quantité est inférieure à 0.1 mm.

Copyright

Les données affichées sur cette page sont la propriété exclusive de Météo Suisse.

Récapitulatif de la journée
Température [°C] Vent [km/h] Ensoleillement4 [h] Precipitations totale5 [mm] Pression [Hpa]
Min1 Max.2 Moy.3 Max. Min Max.
-12.6 -9.4 16.9 42.6 5 h 30 min 0 700.0 700.0

1 Température minimale relevée entre 18:00 UTC la veille et 18:00 UTC le jour donné.

2 Température maximale relevée entre 06:00 UTC le jour donné et 06:00 UTC le lendemain.

3 Vent moyen de la journée basé sur les relevés horaires.

4 Ensoleillement en heures relevé entre 06:00 UTC la veille et 06:00 UTC le jour donné.

5 Précipitations totales tombées entre 06:00 UTC la jour donné et 06:00 UTC le lendemain.

Graphiques horaires